createdAt,value
2022-12-15T00:02:36.536Z,66.90
2022-12-15T00:05:23.916Z,66.00
2022-12-15T00:08:12.826Z,68.30
2022-12-15T00:10:59.574Z,67.00
2022-12-15T00:13:46.243Z,67.40
2022-12-15T00:16:33.210Z,69.60
2022-12-15T00:19:19.789Z,67.30
2022-12-15T00:22:06.674Z,74.70
2022-12-15T00:24:54.139Z,80.10
2022-12-15T00:27:41.248Z,74.70
2022-12-15T00:30:29.867Z,79.80
2022-12-15T00:33:16.791Z,73.80
2022-12-15T00:36:03.621Z,71.70
2022-12-15T00:38:44.439Z,79.10
2022-12-15T00:41:17.903Z,73.30
2022-12-15T00:43:46.566Z,71.90
2022-12-15T00:46:33.830Z,74.50
2022-12-15T00:49:03.477Z,73.20
2022-12-15T00:51:50.404Z,68.80
2022-12-15T00:54:37.339Z,70.50
2022-12-15T00:57:24.331Z,76.60
2022-12-15T01:00:11.254Z,71.10
2022-12-15T01:02:58.243Z,81.10
2022-12-15T01:05:45.356Z,70.40
2022-12-15T01:08:32.223Z,77.80
2022-12-15T01:11:19.820Z,73.30
2022-12-15T01:14:08.323Z,76.00
2022-12-15T01:16:55.155Z,73.70
2022-12-15T01:19:42.101Z,69.70
2022-12-15T01:22:10.523Z,67.20
2022-12-15T01:24:38.716Z,68.40
2022-12-15T01:27:06.936Z,64.90
2022-12-15T01:29:35.222Z,69.70
2022-12-15T01:32:03.387Z,73.50
2022-12-15T01:34:31.721Z,71.00
2022-12-15T01:37:00.006Z,66.50
2022-12-15T01:39:51.380Z,73.30
2022-12-15T01:42:19.781Z,71.00
2022-12-15T01:44:51.354Z,65.40
2022-12-15T01:47:24.941Z,61.70
2022-12-15T01:49:54.627Z,64.20
2022-12-15T01:52:22.692Z,61.80
2022-12-15T01:54:55.719Z,59.70
2022-12-15T01:57:31.739Z,63.00
2022-12-15T02:00:02.736Z,56.00
2022-12-15T02:03:08.185Z,58.80
2022-12-15T02:05:37.248Z,67.40
2022-12-15T02:08:07.306Z,70.80
2022-12-15T02:10:45.355Z,62.40
2022-12-15T02:13:25.656Z,63.00
2022-12-15T02:16:19.028Z,62.70
2022-12-15T02:19:09.234Z,60.10
2022-12-15T02:22:02.853Z,50.70
2022-12-15T02:24:46.002Z,55.40
2022-12-15T02:28:13.905Z,60.20
2022-12-15T02:31:09.826Z,55.80
2022-12-15T02:33:45.172Z,50.20
2022-12-15T02:36:29.226Z,54.00
2022-12-15T02:38:57.687Z,58.80
2022-12-15T02:41:53.159Z,64.00
2022-12-15T02:44:30.714Z,54.80
2022-12-15T02:47:16.901Z,58.90
2022-12-15T02:50:12.910Z,50.20
2022-12-15T02:52:50.112Z,57.10
2022-12-15T02:55:55.839Z,58.00
2022-12-15T02:58:42.449Z,56.00
2022-12-15T03:01:22.340Z,57.60
2022-12-15T03:03:52.044Z,53.70
2022-12-15T03:06:20.500Z,52.10
2022-12-15T03:08:48.637Z,49.40
2022-12-15T03:11:17.312Z,51.10
2022-12-15T03:13:45.438Z,57.60
2022-12-15T03:16:13.815Z,56.90
2022-12-15T03:18:44.911Z,50.50
2022-12-15T03:21:13.449Z,60.10
2022-12-15T03:23:41.797Z,56.30
2022-12-15T03:26:10.071Z,51.20
2022-12-15T03:28:38.246Z,53.60
2022-12-15T03:31:06.477Z,47.40
2022-12-15T03:33:35.258Z,53.10
2022-12-15T03:36:03.761Z,51.90
2022-12-15T03:38:31.999Z,52.80
2022-12-15T03:41:00.158Z,54.60
2022-12-15T03:43:28.943Z,53.60
2022-12-15T03:45:58.057Z,53.80
2022-12-15T03:48:26.469Z,53.90
2022-12-15T03:50:55.289Z,55.60
2022-12-15T03:53:23.466Z,52.30
2022-12-15T03:55:51.881Z,53.70
2022-12-15T03:58:19.976Z,53.40
2022-12-15T04:00:48.681Z,52.20
2022-12-15T04:03:16.963Z,48.00
2022-12-15T04:05:45.205Z,46.40
2022-12-15T04:08:13.488Z,36.20
2022-12-15T04:10:43.636Z,45.80
2022-12-15T04:13:12.010Z,44.60
2022-12-15T04:15:41.039Z,45.10
2022-12-15T04:18:10.997Z,46.00
2022-12-15T04:20:40.271Z,38.10
2022-12-15T04:23:08.606Z,43.40
2022-12-15T04:25:56.570Z,48.00
2022-12-15T04:28:43.233Z,50.80
2022-12-15T04:31:45.997Z,41.50
2022-12-15T04:34:36.652Z,44.60
2022-12-15T04:37:26.467Z,47.80
2022-12-15T04:40:14.077Z,47.90
2022-12-15T04:43:05.746Z,47.80
2022-12-15T04:45:52.620Z,41.50
2022-12-15T04:48:39.262Z,43.00
2022-12-15T04:51:26.458Z,41.00
2022-12-15T04:54:13.342Z,33.20
2022-12-15T04:57:00.282Z,41.20
2022-12-15T04:59:47.156Z,41.50
2022-12-15T05:02:34.006Z,47.20
2022-12-15T05:05:23.879Z,37.30
2022-12-15T05:08:10.959Z,39.60
2022-12-15T05:10:57.490Z,44.20
2022-12-15T05:13:44.964Z,46.60
2022-12-15T05:16:31.572Z,46.80
2022-12-15T05:19:18.528Z,40.70
2022-12-15T05:22:05.801Z,46.40
2022-12-15T05:24:52.776Z,47.90
2022-12-15T05:27:39.533Z,52.00
2022-12-15T05:30:27.039Z,46.20
2022-12-15T05:32:55.371Z,43.40
2022-12-15T05:35:23.681Z,52.50
2022-12-15T05:37:51.918Z,53.70
2022-12-15T05:40:20.175Z,67.20
2022-12-15T05:42:49.935Z,60.10
2022-12-15T05:45:18.634Z,62.40
2022-12-15T05:47:51.652Z,63.40
2022-12-15T05:50:20.382Z,66.20
2022-12-15T05:52:51.629Z,66.80
2022-12-15T05:55:19.844Z,61.40
2022-12-15T05:57:55.076Z,68.60
2022-12-15T06:00:23.470Z,66.50
2022-12-15T06:02:51.610Z,57.60
2022-12-15T06:05:20.190Z,66.70
2022-12-15T06:07:48.496Z,71.40
2022-12-15T06:10:16.512Z,58.80
2022-12-15T06:12:44.776Z,75.80
2022-12-15T06:15:13.089Z,81.70
2022-12-15T06:17:41.244Z,82.60
2022-12-15T06:20:09.816Z,73.80
2022-12-15T06:22:38.358Z,76.90
2022-12-15T06:25:06.859Z,80.00
2022-12-15T06:27:37.058Z,79.20
2022-12-15T06:30:06.111Z,78.90
2022-12-15T06:32:35.909Z,78.40
2022-12-15T06:35:04.561Z,73.50
2022-12-15T06:37:32.926Z,76.30
2022-12-15T06:40:01.001Z,66.20
2022-12-15T06:42:29.270Z,75.80
2022-12-15T06:44:57.439Z,69.10
2022-12-15T06:47:25.518Z,89.80
2022-12-15T06:49:54.138Z,81.40
2022-12-15T06:52:22.426Z,89.20
2022-12-15T06:54:50.633Z,85.30
2022-12-15T06:57:18.850Z,88.70
2022-12-15T06:59:47.270Z,80.70
2022-12-15T07:02:17.381Z,84.20
2022-12-15T07:04:46.820Z,87.50
2022-12-15T07:07:15.393Z,98.70
2022-12-15T07:09:43.527Z,82.80
2022-12-15T07:12:12.775Z,85.50
2022-12-15T07:14:41.150Z,81.10
2022-12-15T07:17:11.218Z,82.50
2022-12-15T07:19:39.488Z,79.60
2022-12-15T07:22:07.727Z,80.10
2022-12-15T07:24:35.814Z,78.50
2022-12-15T07:27:04.118Z,81.80
2022-12-15T07:29:32.275Z,90.10
2022-12-15T07:32:02.018Z,93.30
2022-12-15T07:34:30.341Z,98.30
2022-12-15T07:36:59.425Z,89.10
2022-12-15T07:39:27.849Z,87.60
2022-12-15T07:41:56.125Z,92.90
2022-12-15T07:44:24.563Z,88.20
2022-12-15T07:46:52.705Z,86.00
2022-12-15T07:49:21.669Z,79.60
2022-12-15T07:51:49.967Z,85.70
2022-12-15T07:54:18.216Z,78.90
2022-12-15T07:56:50.379Z,80.70
2022-12-15T07:59:19.901Z,84.80
2022-12-15T08:01:48.295Z,101.00
2022-12-15T08:04:16.684Z,105.00
2022-12-15T08:06:46.016Z,89.10
2022-12-15T08:09:14.172Z,99.50
2022-12-15T08:11:43.233Z,91.60
2022-12-15T08:14:16.968Z,92.80
2022-12-15T08:16:46.087Z,88.20
2022-12-15T08:19:15.554Z,84.80
2022-12-15T08:21:48.471Z,88.30
2022-12-15T08:24:17.486Z,93.30
2022-12-15T08:26:49.950Z,85.30
2022-12-15T08:32:07.728Z,92.30
2022-12-15T08:34:36.037Z,100.80
2022-12-15T08:37:04.374Z,104.10
2022-12-15T08:39:32.493Z,94.30
2022-12-15T08:42:01.020Z,97.00
2022-12-15T08:44:29.183Z,88.60
2022-12-15T08:46:57.249Z,90.00
2022-12-15T08:49:26.065Z,86.50
2022-12-15T08:51:54.176Z,80.70
2022-12-15T08:54:22.337Z,81.60
2022-12-15T08:56:50.946Z,80.80
2022-12-15T08:59:19.531Z,87.50
2022-12-15T09:01:48.212Z,84.60
2022-12-15T09:04:18.106Z,92.10
2022-12-15T09:06:50.612Z,84.10
2022-12-15T09:09:19.987Z,93.30
2022-12-15T09:11:48.706Z,93.20
2022-12-15T09:14:18.973Z,93.40
2022-12-15T09:16:50.499Z,102.60
2022-12-15T09:19:19.326Z,78.00
2022-12-15T09:21:48.367Z,94.20
2022-12-15T09:24:26.084Z,94.20
2022-12-15T09:27:00.679Z,90.10
2022-12-15T09:29:29.177Z,81.30
2022-12-15T09:31:57.338Z,88.40
2022-12-15T09:34:27.099Z,91.60
2022-12-15T09:36:55.676Z,91.50
2022-12-15T09:39:23.809Z,90.80
2022-12-15T09:41:55.869Z,96.30
2022-12-15T09:44:26.246Z,93.80
2022-12-15T09:47:12.432Z,88.80
2022-12-15T09:49:49.970Z,89.00
2022-12-15T09:52:22.716Z,100.70
2022-12-15T09:54:51.388Z,90.20
2022-12-15T09:57:23.883Z,91.60
2022-12-15T10:00:06.435Z,95.60
2022-12-15T10:03:15.112Z,87.00
2022-12-15T10:06:21.081Z,91.90
2022-12-15T10:09:00.687Z,91.30
2022-12-15T10:11:34.808Z,105.90
2022-12-15T10:14:11.769Z,90.70
2022-12-15T10:16:47.908Z,87.00
2022-12-15T10:19:37.053Z,100.10
2022-12-15T10:22:05.625Z,93.80
2022-12-15T10:27:56.902Z,91.10
2022-12-15T10:30:25.353Z,92.60
2022-12-15T10:33:09.524Z,102.20
2022-12-15T10:35:39.807Z,82.70
2022-12-15T10:38:21.395Z,91.60
2022-12-15T10:40:59.446Z,79.80
2022-12-15T10:43:39.714Z,87.20
2022-12-15T10:46:11.110Z,89.70
2022-12-15T10:48:41.384Z,91.70
2022-12-15T10:51:15.688Z,97.70
2022-12-15T10:53:51.377Z,90.70
2022-12-15T10:56:32.363Z,88.80
2022-12-15T10:59:21.398Z,91.90
2022-12-15T11:01:50.812Z,84.70
2022-12-15T11:04:31.502Z,81.00
2022-12-15T11:07:02.720Z,85.90
2022-12-15T11:09:39.313Z,85.80
2022-12-15T11:12:37.870Z,85.70
2022-12-15T11:15:32.521Z,80.80
2022-12-15T11:18:29.495Z,83.90
2022-12-15T11:21:02.931Z,89.90
2022-12-15T11:23:52.257Z,99.30
2022-12-15T11:26:26.690Z,96.30
2022-12-15T11:29:01.381Z,88.30
2022-12-15T11:31:38.618Z,90.70
2022-12-15T11:34:31.153Z,89.00
2022-12-15T11:37:10.511Z,89.70
2022-12-15T11:39:44.264Z,82.20
2022-12-15T11:42:13.911Z,88.10
2022-12-15T11:44:58.775Z,88.60
2022-12-15T11:47:30.035Z,91.10
2022-12-15T11:53:09.958Z,89.20
2022-12-15T11:56:08.548Z,78.90
2022-12-15T11:59:04.962Z,86.60
2022-12-15T12:01:46.974Z,85.20
2022-12-15T12:04:26.261Z,80.30
2022-12-15T12:07:16.422Z,87.60
2022-12-15T12:10:18.960Z,82.80
2022-12-15T12:12:57.077Z,83.80
2022-12-15T12:15:25.577Z,75.40
2022-12-15T12:17:58.944Z,74.70
2022-12-15T12:20:40.056Z,75.50
2022-12-15T12:23:24.314Z,72.30
2022-12-15T12:26:11.688Z,77.00
2022-12-15T12:29:00.183Z,77.50
2022-12-15T12:31:52.201Z,75.40
2022-12-15T12:34:29.585Z,75.10
2022-12-15T12:37:28.331Z,88.30
2022-12-15T12:40:02.534Z,80.00
2022-12-15T12:42:49.613Z,82.20
2022-12-15T12:45:20.252Z,72.90
2022-12-15T12:47:53.389Z,76.20
2022-12-15T12:50:25.925Z,81.70
2022-12-15T12:53:03.466Z,87.60
2022-12-15T12:55:41.301Z,75.40
2022-12-15T12:58:42.774Z,75.20
2022-12-15T13:01:10.917Z,73.50
2022-12-15T13:03:41.713Z,74.60
2022-12-15T13:06:41.691Z,79.40
2022-12-15T13:09:21.748Z,71.00
2022-12-15T13:11:51.322Z,73.50
2022-12-15T13:14:36.409Z,72.80
2022-12-15T13:17:27.225Z,71.20
2022-12-15T13:19:58.606Z,73.90
2022-12-15T13:22:30.286Z,69.40
2022-12-15T13:24:58.603Z,72.00
2022-12-15T13:27:38.537Z,62.70
2022-12-15T13:30:09.333Z,61.60
2022-12-15T13:32:55.608Z,57.40
2022-12-15T13:35:31.442Z,53.30
2022-12-15T13:38:03.905Z,47.00
2022-12-15T13:40:51.910Z,50.20
2022-12-15T13:43:32.394Z,52.80
2022-12-15T13:46:33.482Z,49.80
2022-12-15T13:49:27.744Z,50.30
2022-12-15T13:52:03.432Z,52.10
2022-12-15T13:54:35.744Z,51.30
2022-12-15T13:57:14.473Z,42.10
2022-12-15T13:59:49.459Z,44.60
2022-12-15T14:02:29.682Z,40.60
2022-12-15T14:05:22.811Z,40.30
2022-12-15T14:07:58.284Z,45.10
2022-12-15T14:10:33.549Z,47.70
2022-12-15T14:13:16.171Z,55.70
2022-12-15T14:15:52.602Z,40.30
2022-12-15T14:18:33.320Z,43.90
2022-12-15T14:21:06.526Z,40.80
2022-12-15T14:24:11.426Z,41.00
2022-12-15T14:26:33.762Z,33.10
2022-12-15T14:29:05.663Z,40.10
2022-12-15T14:31:37.330Z,39.20
2022-12-15T14:34:30.577Z,36.20
2022-12-15T14:37:03.581Z,29.60
2022-12-15T14:39:45.047Z,38.60
2022-12-15T14:42:23.812Z,43.00
2022-12-15T14:44:57.690Z,46.60
2022-12-15T14:47:34.733Z,43.20
2022-12-15T14:50:09.663Z,38.50
2022-12-15T14:52:42.071Z,46.40
2022-12-15T14:55:32.303Z,42.10
2022-12-15T14:58:01.613Z,46.30
2022-12-15T15:00:34.035Z,43.80
2022-12-15T15:03:25.519Z,41.50
2022-12-15T15:05:57.578Z,40.70
2022-12-15T15:08:32.884Z,64.30
2022-12-15T15:11:19.726Z,45.10
2022-12-15T15:13:48.409Z,47.20
2022-12-15T15:16:19.314Z,42.40
2022-12-15T15:18:53.270Z,46.50
2022-12-15T15:21:25.385Z,39.60
2022-12-15T15:24:11.932Z,41.80
2022-12-15T15:26:40.463Z,37.30
2022-12-15T15:29:32.546Z,39.70
2022-12-15T15:32:22.688Z,41.50
2022-12-15T15:34:51.395Z,44.10
2022-12-15T15:37:29.351Z,41.60
2022-12-15T15:39:57.451Z,47.10
2022-12-15T15:42:32.272Z,46.20
2022-12-15T15:45:01.427Z,44.80
2022-12-15T15:47:29.715Z,48.40
2022-12-15T15:49:59.828Z,45.70
2022-12-15T15:52:30.000Z,44.70
2022-12-15T15:54:59.396Z,50.50
2022-12-15T15:57:27.494Z,47.50
2022-12-15T15:59:56.043Z,48.30
2022-12-15T16:02:24.411Z,42.00
2022-12-15T16:04:52.639Z,43.20
2022-12-15T16:07:27.915Z,41.70
2022-12-15T16:09:56.925Z,37.80
2022-12-15T16:12:36.480Z,38.50
2022-12-15T16:15:17.306Z,36.60
2022-12-15T16:17:46.971Z,42.70
2022-12-15T16:20:18.302Z,42.60
2022-12-15T16:22:51.445Z,39.40
2022-12-15T16:25:25.706Z,36.30
2022-12-15T16:27:54.298Z,37.20
2022-12-15T16:30:26.036Z,38.10
2022-12-15T16:32:56.321Z,39.60
2022-12-15T16:35:26.385Z,41.00
2022-12-15T16:37:54.937Z,36.30
2022-12-15T16:40:26.025Z,38.20
2022-12-15T16:45:29.073Z,34.50
2022-12-15T16:47:58.246Z,40.60
2022-12-15T16:50:38.399Z,36.70
2022-12-15T16:53:09.931Z,38.60
2022-12-15T16:55:40.053Z,40.60
2022-12-15T16:58:15.738Z,36.70
2022-12-15T17:00:44.958Z,38.90
2022-12-15T17:03:18.763Z,44.80
2022-12-15T17:05:52.431Z,41.40
2022-12-15T17:08:29.181Z,37.60
2022-12-15T17:10:57.687Z,40.30
2022-12-15T17:13:40.515Z,36.80
2022-12-15T17:16:14.381Z,40.10
2022-12-15T17:21:35.482Z,35.10
2022-12-15T17:24:12.570Z,43.10
2022-12-15T17:26:42.401Z,39.60
2022-12-15T17:29:20.287Z,43.10
2022-12-15T17:31:48.649Z,41.30
2022-12-15T17:34:27.921Z,42.70
2022-12-15T17:37:02.361Z,42.00
2022-12-15T17:39:32.640Z,49.10
2022-12-15T17:42:02.067Z,42.60
2022-12-15T17:44:36.224Z,77.10
2022-12-15T17:47:06.955Z,62.20
2022-12-15T17:49:38.368Z,99.20
2022-12-15T17:52:29.293Z,75.60
2022-12-15T17:54:57.941Z,65.60
2022-12-15T17:57:26.313Z,66.80
2022-12-15T17:59:54.389Z,64.20
2022-12-15T18:02:23.038Z,61.60
2022-12-15T18:04:51.630Z,59.20
2022-12-15T18:07:22.056Z,58.50
2022-12-15T18:09:52.265Z,62.10
2022-12-15T18:12:26.889Z,54.70
2022-12-15T18:14:56.908Z,52.80
2022-12-15T18:17:25.321Z,65.20
2022-12-15T18:19:53.535Z,72.50
2022-12-15T18:22:24.960Z,60.90
2022-12-15T18:24:54.596Z,62.20
2022-12-15T18:27:25.909Z,62.80
2022-12-15T18:29:54.562Z,48.90
2022-12-15T18:32:25.652Z,49.30
2022-12-15T18:34:55.106Z,40.40
2022-12-15T18:37:25.242Z,42.50
2022-12-15T18:39:54.228Z,40.50
2022-12-15T18:44:53.524Z,36.80
2022-12-15T18:47:23.758Z,45.40
2022-12-15T18:49:52.617Z,51.30
2022-12-15T18:52:23.287Z,53.00
2022-12-15T18:54:54.007Z,56.60
2022-12-15T18:57:30.092Z,57.90
2022-12-15T19:00:01.984Z,58.70
2022-12-15T19:02:33.525Z,58.50
2022-12-15T19:05:01.902Z,75.70
2022-12-15T19:07:30.483Z,57.90
2022-12-15T19:09:59.033Z,63.70
2022-12-15T19:12:27.194Z,62.60
2022-12-15T19:14:55.558Z,76.40
2022-12-15T19:17:43.279Z,77.40
2022-12-15T19:20:38.292Z,66.50
2022-12-15T19:23:07.226Z,67.60
2022-12-15T19:25:35.638Z,69.70
2022-12-15T19:28:04.363Z,72.10
2022-12-15T19:30:38.574Z,64.90
2022-12-15T19:33:08.473Z,66.50
2022-12-15T19:35:38.252Z,63.60
2022-12-15T19:38:07.880Z,67.80
2022-12-15T19:40:37.355Z,66.90
2022-12-15T19:43:05.754Z,58.10
2022-12-15T19:45:33.940Z,64.00
2022-12-15T19:48:02.191Z,68.90
2022-12-15T19:50:36.947Z,59.50
2022-12-15T19:53:27.487Z,57.70
2022-12-15T19:55:58.861Z,66.80
2022-12-15T19:58:32.710Z,62.70
2022-12-15T20:01:05.298Z,70.30
2022-12-15T20:03:37.795Z,71.20
2022-12-15T20:06:14.521Z,65.10
2022-12-15T20:08:45.957Z,67.00
2022-12-15T20:11:30.323Z,68.60
2022-12-15T20:13:59.042Z,75.60
2022-12-15T20:16:27.973Z,61.90
2022-12-15T20:18:56.224Z,66.30
2022-12-15T20:21:31.684Z,64.10
2022-12-15T20:24:05.370Z,59.80
2022-12-15T20:26:34.759Z,72.00
2022-12-15T20:29:03.053Z,66.50
2022-12-15T20:31:31.498Z,62.90
2022-12-15T20:33:59.733Z,51.40
2022-12-15T20:36:30.579Z,49.20
2022-12-15T20:38:58.703Z,58.30
2022-12-15T20:41:29.465Z,56.50
2022-12-15T20:43:58.905Z,48.30
2022-12-15T20:46:33.437Z,49.90
2022-12-15T20:49:02.288Z,55.80
2022-12-15T20:51:34.739Z,52.70
2022-12-15T20:54:02.989Z,48.10
2022-12-15T20:56:31.163Z,57.00
2022-12-15T20:58:59.611Z,61.40
2022-12-15T21:01:33.583Z,51.20
2022-12-15T21:04:10.556Z,52.20
2022-12-15T21:06:38.968Z,53.60
2022-12-15T21:09:13.510Z,55.60
2022-12-15T21:11:41.860Z,52.50
2022-12-15T21:14:17.547Z,52.10
2022-12-15T21:16:46.037Z,50.20
2022-12-15T21:19:23.263Z,55.70
2022-12-15T21:21:54.897Z,54.00
2022-12-15T21:24:28.639Z,42.90
2022-12-15T21:26:56.870Z,59.30
2022-12-15T21:29:27.887Z,51.70
2022-12-15T21:34:24.045Z,46.30
2022-12-15T21:36:55.305Z,51.30
2022-12-15T21:39:30.154Z,46.50
2022-12-15T21:42:13.227Z,53.00
2022-12-15T21:44:41.822Z,44.80
2022-12-15T21:47:23.996Z,54.40
2022-12-15T21:49:53.029Z,45.50
2022-12-15T21:54:53.696Z,59.10
2022-12-15T21:57:23.039Z,56.30
2022-12-15T21:59:51.084Z,65.20
2022-12-15T22:02:26.729Z,61.40
2022-12-15T22:04:55.719Z,66.50
2022-12-15T22:07:23.962Z,70.00
2022-12-15T22:09:52.198Z,80.30
2022-12-15T22:12:24.076Z,76.50
2022-12-15T22:14:52.259Z,66.20
2022-12-15T22:17:22.435Z,65.90
2022-12-15T22:19:50.762Z,62.90
2022-12-15T22:22:18.972Z,60.40
2022-12-15T22:24:48.274Z,53.60
2022-12-15T22:27:22.243Z,48.80
2022-12-15T22:29:50.641Z,55.00
2022-12-15T22:32:18.725Z,57.60
2022-12-15T22:34:46.791Z,62.30
2022-12-15T22:37:15.893Z,56.20
2022-12-15T22:39:43.981Z,65.30
2022-12-15T22:42:16.759Z,58.80
2022-12-15T22:44:45.495Z,57.20
2022-12-15T22:47:13.682Z,60.40
2022-12-15T22:49:42.289Z,60.60
2022-12-15T22:52:19.047Z,61.00
2022-12-15T22:54:47.872Z,58.90
2022-12-15T22:57:28.601Z,66.20
2022-12-15T23:00:04.131Z,67.90
2022-12-15T23:02:36.427Z,68.70
2022-12-15T23:05:06.037Z,68.20
2022-12-15T23:07:35.641Z,63.80
2022-12-15T23:10:23.507Z,62.10
2022-12-15T23:12:54.513Z,68.40
2022-12-15T23:18:10.982Z,67.30
2022-12-15T23:20:39.213Z,72.20
2022-12-15T23:23:08.418Z,73.60
2022-12-15T23:25:36.709Z,77.90
2022-12-15T23:28:05.437Z,87.50
2022-12-15T23:30:33.599Z,74.60
2022-12-15T23:33:01.989Z,78.30
2022-12-15T23:35:30.047Z,76.70
2022-12-15T23:37:58.716Z,69.00
2022-12-15T23:40:27.094Z,76.20
2022-12-15T23:42:55.581Z,76.50
2022-12-15T23:45:23.749Z,76.40
2022-12-15T23:47:52.001Z,73.10
2022-12-15T23:50:22.259Z,71.80
2022-12-15T23:52:51.461Z,71.50
2022-12-15T23:55:20.393Z,74.90
2022-12-15T23:57:48.595Z,79.20
